createdAt,value
2022-11-03T00:01:52.880Z,53.10
2022-11-03T00:04:23.559Z,53.20
2022-11-03T00:06:54.468Z,53.30
2022-11-03T00:09:26.961Z,53.30
2022-11-03T00:11:56.958Z,53.40
2022-11-03T00:14:25.519Z,53.40
2022-11-03T00:16:54.190Z,53.40
2022-11-03T00:19:22.709Z,53.40
2022-11-03T00:21:54.003Z,53.40
2022-11-03T00:24:22.507Z,53.40
2022-11-03T00:26:51.269Z,53.50
2022-11-03T00:29:21.565Z,53.50
2022-11-03T00:31:49.944Z,53.60
2022-11-03T00:34:18.365Z,53.60
2022-11-03T00:36:46.763Z,53.70
2022-11-03T00:39:15.213Z,53.70
2022-11-03T00:41:43.661Z,53.70
2022-11-03T00:44:13.423Z,53.70
2022-11-03T00:46:43.267Z,53.80
2022-11-03T00:49:11.663Z,53.90
2022-11-03T00:51:40.184Z,53.90
2022-11-03T00:54:08.984Z,53.90
2022-11-03T00:56:39.999Z,53.90
2022-11-03T00:59:10.703Z,54.00
2022-11-03T01:01:47.331Z,54.00
2022-11-03T01:04:34.659Z,54.00
2022-11-03T01:07:05.683Z,54.00
2022-11-03T01:09:39.101Z,54.10
2022-11-03T01:12:10.942Z,54.20
2022-11-03T01:14:42.268Z,54.20
2022-11-03T01:17:16.305Z,54.20
2022-11-03T01:19:44.794Z,54.30
2022-11-03T01:22:14.537Z,54.30
2022-11-03T01:24:44.275Z,54.30
2022-11-03T01:27:16.539Z,54.30
2022-11-03T01:29:45.599Z,54.40
2022-11-03T01:32:15.586Z,54.40
2022-11-03T01:34:44.000Z,54.50
2022-11-03T01:37:12.380Z,54.50
2022-11-03T01:39:40.745Z,54.50
2022-11-03T01:42:13.033Z,54.70
2022-11-03T01:44:44.882Z,54.70
2022-11-03T01:47:24.174Z,54.70
2022-11-03T01:49:57.761Z,54.90
2022-11-03T01:52:30.601Z,54.90
2022-11-03T01:55:03.563Z,54.90
2022-11-03T01:57:39.893Z,55.50
2022-11-03T02:00:11.022Z,55.00
2022-11-03T02:02:45.250Z,54.90
2022-11-03T02:05:15.389Z,55.00
2022-11-03T02:07:51.375Z,55.00
2022-11-03T02:10:21.333Z,55.00
2022-11-03T02:12:50.099Z,55.00
2022-11-03T02:15:21.472Z,55.00
2022-11-03T02:17:54.126Z,55.10
2022-11-03T02:20:26.203Z,55.20
2022-11-03T02:23:22.567Z,55.20
2022-11-03T02:25:54.608Z,55.40
2022-11-03T02:28:25.536Z,55.30
2022-11-03T02:31:05.117Z,55.30
2022-11-03T02:33:43.858Z,55.50
2022-11-03T02:36:18.627Z,55.50
2022-11-03T02:38:53.827Z,55.50
2022-11-03T02:41:25.352Z,55.60
2022-11-03T02:43:56.429Z,55.60
2022-11-03T02:46:27.314Z,55.60
2022-11-03T02:48:57.193Z,55.70
2022-11-03T02:51:25.814Z,55.70
2022-11-03T02:54:05.052Z,55.70
2022-11-03T02:56:40.557Z,55.80
2022-11-03T02:59:13.616Z,55.80
2022-11-03T03:01:50.955Z,55.70
2022-11-03T03:04:25.304Z,55.70
2022-11-03T03:06:59.387Z,55.80
2022-11-03T03:09:34.083Z,55.70
2022-11-03T03:12:06.425Z,55.80
2022-11-03T03:14:39.482Z,55.80
2022-11-03T03:17:14.223Z,56.00
2022-11-03T03:19:51.727Z,56.00
2022-11-03T03:22:30.003Z,56.10
2022-11-03T03:25:05.030Z,56.20
2022-11-03T03:27:36.069Z,56.20
2022-11-03T03:30:07.590Z,56.20
2022-11-03T03:32:40.651Z,56.20
2022-11-03T03:35:16.985Z,56.30
2022-11-03T03:37:50.060Z,56.30
2022-11-03T03:40:25.883Z,56.30
2022-11-03T03:42:55.819Z,56.30
2022-11-03T03:45:27.062Z,56.40
2022-11-03T03:47:57.642Z,56.40
2022-11-03T03:50:28.995Z,56.40
2022-11-03T03:53:01.690Z,56.40
2022-11-03T03:55:42.831Z,56.50
2022-11-03T03:58:15.431Z,56.60
2022-11-03T04:00:44.299Z,56.50
2022-11-03T04:03:18.651Z,56.50
2022-11-03T04:05:47.631Z,56.60
2022-11-03T04:08:17.482Z,56.50
2022-11-03T04:11:07.511Z,56.60
2022-11-03T04:13:54.745Z,56.70
2022-11-03T04:16:40.659Z,56.80
2022-11-03T04:19:30.146Z,57.20
2022-11-03T04:22:16.206Z,56.70
2022-11-03T04:24:45.108Z,56.70
2022-11-03T04:27:41.007Z,56.70
2022-11-03T04:30:17.649Z,56.90
2022-11-03T04:32:48.545Z,56.90
2022-11-03T04:35:19.250Z,56.90
2022-11-03T04:37:53.102Z,56.90
2022-11-03T04:40:21.866Z,57.00
2022-11-03T04:42:50.444Z,57.00
2022-11-03T04:45:25.831Z,57.00
2022-11-03T04:47:54.993Z,57.20
2022-11-03T04:50:25.475Z,57.10
2022-11-03T04:52:58.347Z,57.20
2022-11-03T04:55:28.138Z,57.20
2022-11-03T04:57:59.802Z,57.10
2022-11-03T05:00:29.632Z,57.20
2022-11-03T05:02:58.846Z,57.20
2022-11-03T05:05:28.225Z,57.20
2022-11-03T05:08:00.188Z,57.20
2022-11-03T05:10:30.636Z,57.30
2022-11-03T05:13:01.595Z,57.20
2022-11-03T05:15:38.351Z,57.40
2022-11-03T05:18:19.860Z,57.50
2022-11-03T05:20:53.421Z,57.50
2022-11-03T05:23:23.023Z,57.40
2022-11-03T05:25:54.384Z,57.40
2022-11-03T05:28:29.213Z,57.40
2022-11-03T05:30:59.008Z,57.50
2022-11-03T05:33:30.491Z,57.40
2022-11-03T05:36:03.191Z,57.50
2022-11-03T05:38:34.407Z,57.50
2022-11-03T05:41:03.123Z,57.50
2022-11-03T05:43:31.789Z,57.50
2022-11-03T05:46:04.349Z,57.40
2022-11-03T05:48:36.525Z,57.50
2022-11-03T05:51:19.685Z,57.50
2022-11-03T05:53:52.784Z,57.60
2022-11-03T05:56:24.047Z,57.50
2022-11-03T05:58:53.748Z,57.50
2022-11-03T06:01:30.531Z,57.50
2022-11-03T06:04:01.734Z,57.60
2022-11-03T06:06:34.901Z,57.60
2022-11-03T06:09:12.055Z,57.60
2022-11-03T06:11:41.673Z,57.70
2022-11-03T06:14:23.964Z,57.60
2022-11-03T06:16:57.930Z,57.70
2022-11-03T06:19:31.282Z,57.70
2022-11-03T06:22:05.620Z,57.70
2022-11-03T06:24:35.940Z,57.70
2022-11-03T06:27:04.685Z,57.70
2022-11-03T06:29:35.582Z,57.70
2022-11-03T06:32:06.793Z,57.80
2022-11-03T06:34:48.435Z,57.80
2022-11-03T06:37:23.486Z,57.90
2022-11-03T06:39:59.272Z,57.90
2022-11-03T06:42:31.965Z,57.80
2022-11-03T06:45:02.650Z,57.70
2022-11-03T06:47:33.523Z,57.80
2022-11-03T06:50:04.625Z,57.80
2022-11-03T06:52:36.686Z,57.90
2022-11-03T06:55:26.721Z,57.90
2022-11-03T06:58:00.250Z,58.10
2022-11-03T07:00:36.201Z,58.00
2022-11-03T07:03:20.421Z,57.90
2022-11-03T07:05:49.185Z,58.10
2022-11-03T07:08:26.629Z,58.00
2022-11-03T07:11:02.799Z,58.20
2022-11-03T07:13:34.547Z,58.20
2022-11-03T07:16:03.810Z,58.10
2022-11-03T07:18:40.781Z,58.10
2022-11-03T07:21:35.550Z,58.20
2022-11-03T07:24:15.829Z,58.20
2022-11-03T07:26:44.152Z,58.20
2022-11-03T07:29:20.848Z,58.20
2022-11-03T07:31:49.528Z,58.30
2022-11-03T07:34:23.466Z,58.30
2022-11-03T07:36:56.019Z,58.30
2022-11-03T07:39:25.520Z,58.30
2022-11-03T07:41:54.361Z,58.20
2022-11-03T07:44:22.929Z,58.20
2022-11-03T07:46:52.189Z,58.40
2022-11-03T07:49:30.642Z,58.30
2022-11-03T07:52:01.025Z,58.40
2022-11-03T07:54:35.341Z,58.30
2022-11-03T07:57:13.677Z,58.30
2022-11-03T07:59:45.474Z,58.30
2022-11-03T08:02:27.828Z,58.30
2022-11-03T08:04:58.565Z,58.50
2022-11-03T08:07:27.924Z,58.30
2022-11-03T08:09:56.841Z,58.30
2022-11-03T08:12:25.610Z,58.40
2022-11-03T08:14:54.082Z,58.40
2022-11-03T08:17:22.660Z,58.40
2022-11-03T08:19:51.233Z,58.50
2022-11-03T08:22:21.080Z,58.50
2022-11-03T08:24:49.968Z,58.50
2022-11-03T08:27:19.439Z,58.50
2022-11-03T08:29:47.812Z,58.50
2022-11-03T08:32:16.238Z,58.50
2022-11-03T08:34:44.834Z,58.50
2022-11-03T08:37:13.345Z,58.40
2022-11-03T08:39:43.214Z,58.40
2022-11-03T08:42:11.634Z,58.30
2022-11-03T08:44:40.271Z,58.40
2022-11-03T08:47:08.632Z,58.30
2022-11-03T08:49:37.171Z,58.30
2022-11-03T08:52:06.140Z,58.20
2022-11-03T08:54:34.509Z,58.20
2022-11-03T08:57:05.020Z,58.20
2022-11-03T08:59:34.425Z,58.30
2022-11-03T09:02:02.842Z,58.20
2022-11-03T09:04:31.386Z,58.10
2022-11-03T09:06:59.781Z,58.10
2022-11-03T09:12:20.678Z,58.20
2022-11-03T09:14:49.799Z,58.20
2022-11-03T09:17:18.233Z,58.10
2022-11-03T09:19:46.575Z,58.10
2022-11-03T09:22:15.066Z,58.10
2022-11-03T09:24:44.053Z,58.10
2022-11-03T09:27:12.581Z,58.00
2022-11-03T09:30:10.982Z,58.10
2022-11-03T09:32:31.262Z,58.10
2022-11-03T09:34:59.683Z,58.10
2022-11-03T09:37:28.593Z,58.00
2022-11-03T09:39:57.647Z,57.90
2022-11-03T09:42:26.872Z,57.80
2022-11-03T09:44:57.742Z,57.70
2022-11-03T09:47:33.347Z,57.70
2022-11-03T09:50:02.183Z,57.50
2022-11-03T09:52:30.785Z,57.40
2022-11-03T09:54:59.788Z,57.40
2022-11-03T09:57:29.541Z,57.30
2022-11-03T09:59:59.531Z,57.20
2022-11-03T10:02:31.033Z,57.20
2022-11-03T10:05:03.364Z,57.00
2022-11-03T10:07:36.286Z,57.00
2022-11-03T10:10:06.255Z,57.00
2022-11-03T10:12:38.814Z,57.00
2022-11-03T10:15:16.716Z,57.00
2022-11-03T10:17:46.535Z,56.90
2022-11-03T10:20:18.846Z,57.10
2022-11-03T10:22:49.141Z,57.00
2022-11-03T10:25:29.445Z,57.00
2022-11-03T10:28:19.933Z,57.00
2022-11-03T10:31:14.981Z,56.90
2022-11-03T10:33:53.615Z,56.80
2022-11-03T10:36:27.376Z,56.70
2022-11-03T10:38:56.243Z,56.70
2022-11-03T10:41:26.677Z,56.60
2022-11-03T10:44:08.159Z,56.70
2022-11-03T10:46:50.777Z,56.60
2022-11-03T10:49:21.505Z,56.60
2022-11-03T10:51:54.139Z,56.60
2022-11-03T10:54:24.969Z,56.50
2022-11-03T10:56:54.270Z,56.50
2022-11-03T10:59:31.604Z,56.40
2022-11-03T11:02:02.806Z,56.50
2022-11-03T11:04:34.323Z,56.50
2022-11-03T11:07:02.947Z,56.60
2022-11-03T11:09:31.484Z,56.50
2022-11-03T11:12:06.299Z,56.40
2022-11-03T11:14:40.185Z,56.30
2022-11-03T11:17:50.505Z,56.20
2022-11-03T11:20:32.240Z,56.10
2022-11-03T11:23:52.955Z,56.10
2022-11-03T11:26:42.567Z,55.90
2022-11-03T11:29:44.952Z,55.90
2022-11-03T11:33:00.285Z,55.90
2022-11-03T11:36:08.847Z,55.90
2022-11-03T11:38:59.040Z,55.90
2022-11-03T11:42:09.844Z,56.40
2022-11-03T11:44:54.603Z,56.00
2022-11-03T11:47:51.266Z,56.10
2022-11-03T11:50:36.154Z,56.20
2022-11-03T11:53:26.235Z,56.00
2022-11-03T11:55:58.557Z,56.10
2022-11-03T11:58:36.908Z,56.10
2022-11-03T12:01:09.024Z,56.00
2022-11-03T12:03:43.053Z,56.00
2022-11-03T12:06:14.559Z,56.00
2022-11-03T12:08:43.747Z,55.90
2022-11-03T12:11:14.396Z,55.90
2022-11-03T12:13:49.092Z,55.70
2022-11-03T12:16:35.303Z,56.00
2022-11-03T12:19:40.550Z,55.20
2022-11-03T12:22:12.505Z,55.20
2022-11-03T12:24:51.519Z,55.20
2022-11-03T12:27:43.102Z,55.00
2022-11-03T12:30:18.806Z,54.90
2022-11-03T12:32:48.142Z,55.00
2022-11-03T12:35:17.149Z,55.00
2022-11-03T12:37:46.965Z,55.00
2022-11-03T12:40:16.059Z,55.00
2022-11-03T12:42:44.467Z,55.10
2022-11-03T12:45:14.358Z,55.10
2022-11-03T12:47:42.734Z,55.00
2022-11-03T12:50:13.332Z,55.10
2022-11-03T12:52:41.758Z,55.10
2022-11-03T12:55:12.477Z,55.10
2022-11-03T12:57:40.899Z,55.10
2022-11-03T13:00:12.315Z,55.20
2022-11-03T13:02:40.964Z,55.30
2022-11-03T13:05:10.686Z,55.30
2022-11-03T13:07:39.738Z,55.30
2022-11-03T13:10:09.515Z,55.40
2022-11-03T13:12:41.443Z,55.20
2022-11-03T13:15:13.472Z,55.20
2022-11-03T13:20:30.954Z,55.00
2022-11-03T13:22:59.562Z,55.00
2022-11-03T13:25:28.935Z,54.80
2022-11-03T13:27:58.844Z,54.80
2022-11-03T13:30:28.829Z,54.70
2022-11-03T13:32:57.800Z,54.70
2022-11-03T13:35:26.269Z,54.60
2022-11-03T13:37:54.708Z,54.70
2022-11-03T13:43:13.135Z,54.60
2022-11-03T13:45:41.838Z,54.60
2022-11-03T13:51:00.203Z,54.60
2022-11-03T13:56:21.774Z,55.30
2022-11-03T14:01:41.182Z,54.70
2022-11-03T14:06:59.337Z,54.60
2022-11-03T14:09:27.805Z,54.70
2022-11-03T14:12:13.880Z,54.70
2022-11-03T14:14:44.096Z,54.60
2022-11-03T14:17:12.539Z,54.60
2022-11-03T14:19:45.024Z,54.70
2022-11-03T14:22:17.387Z,54.80
2022-11-03T14:24:46.049Z,54.70
2022-11-03T14:27:15.900Z,54.70
2022-11-03T14:29:49.518Z,54.60
2022-11-03T14:32:19.556Z,54.60
2022-11-03T14:34:48.338Z,54.70
2022-11-03T14:37:17.380Z,54.70
2022-11-03T14:39:45.856Z,54.70
2022-11-03T14:42:15.961Z,55.30
2022-11-03T14:44:47.643Z,54.80
2022-11-03T14:47:18.798Z,55.50
2022-11-03T14:49:47.471Z,54.80
2022-11-03T14:52:17.435Z,54.80
2022-11-03T14:54:45.901Z,54.80
2022-11-03T14:57:14.285Z,54.80
2022-11-03T14:59:42.819Z,54.80
2022-11-03T15:02:12.882Z,54.80
2022-11-03T15:04:42.033Z,54.70
2022-11-03T15:07:10.479Z,55.30
2022-11-03T15:09:38.912Z,54.70
2022-11-03T15:12:07.720Z,54.80
2022-11-03T15:14:36.365Z,54.80
2022-11-03T15:17:04.813Z,54.80
2022-11-03T15:19:34.604Z,54.90
2022-11-03T15:22:02.925Z,55.10
2022-11-03T15:27:19.805Z,55.10
2022-11-03T15:29:48.615Z,55.10
2022-11-03T15:32:17.708Z,55.10
2022-11-03T15:34:47.489Z,55.20
2022-11-03T15:37:16.713Z,55.30
2022-11-03T15:39:45.570Z,55.40
2022-11-03T15:42:13.967Z,55.30
2022-11-03T15:44:42.431Z,55.20
2022-11-03T15:47:10.844Z,55.30
2022-11-03T15:49:39.174Z,55.50
2022-11-03T15:52:10.046Z,55.70
2022-11-03T15:54:42.463Z,55.90
2022-11-03T15:57:11.453Z,56.10
2022-11-03T15:59:40.066Z,56.10
2022-11-03T16:02:27.753Z,56.20
2022-11-03T16:04:57.422Z,56.30
2022-11-03T16:07:27.324Z,56.40
2022-11-03T16:09:56.397Z,56.50
2022-11-03T16:12:25.599Z,56.70
2022-11-03T16:14:54.599Z,56.80
2022-11-03T16:17:23.375Z,56.70
2022-11-03T16:19:52.116Z,56.90
2022-11-03T16:22:22.469Z,57.10
2022-11-03T16:24:52.457Z,57.10
2022-11-03T16:27:21.054Z,57.10
2022-11-03T16:29:49.773Z,57.10
2022-11-03T16:32:18.585Z,57.40
2022-11-03T16:34:48.523Z,57.50
2022-11-03T16:37:17.770Z,57.60
2022-11-03T16:39:46.188Z,57.80
2022-11-03T16:42:16.052Z,57.90
2022-11-03T16:44:44.512Z,58.00
2022-11-03T16:47:13.236Z,58.00
2022-11-03T16:49:41.839Z,58.20
2022-11-03T16:52:10.881Z,58.20
2022-11-03T16:54:39.437Z,58.40
2022-11-03T16:57:08.313Z,58.60
2022-11-03T16:59:39.423Z,58.70
2022-11-03T17:02:12.183Z,58.90
2022-11-03T17:04:44.807Z,58.90
2022-11-03T17:07:13.374Z,59.10
2022-11-03T17:09:41.758Z,59.10
2022-11-03T17:12:10.053Z,59.10
2022-11-03T17:14:40.526Z,59.20
2022-11-03T17:17:09.310Z,59.50
2022-11-03T17:19:38.197Z,59.50
2022-11-03T17:22:07.238Z,60.20
2022-11-03T17:24:36.094Z,59.70
2022-11-03T17:27:07.866Z,59.70
2022-11-03T17:29:41.937Z,59.70
2022-11-03T17:32:15.156Z,59.80
2022-11-03T17:34:43.562Z,59.90
2022-11-03T17:37:12.214Z,59.80
2022-11-03T17:39:41.410Z,59.90
2022-11-03T17:42:17.877Z,59.90
2022-11-03T17:44:49.614Z,60.40
2022-11-03T17:47:19.772Z,60.20
2022-11-03T17:49:48.941Z,60.20
2022-11-03T17:52:25.097Z,60.20
2022-11-03T17:54:59.235Z,60.50
2022-11-03T17:57:28.658Z,60.50
2022-11-03T18:00:01.293Z,60.40
2022-11-03T18:02:33.073Z,60.70
2022-11-03T18:05:21.318Z,60.50
2022-11-03T18:07:51.221Z,60.80
2022-11-03T18:10:19.701Z,60.50
2022-11-03T18:13:08.632Z,60.50
2022-11-03T18:15:39.371Z,60.70
2022-11-03T18:18:15.138Z,60.60
2022-11-03T18:20:53.394Z,60.80
2022-11-03T18:23:25.979Z,60.90
2022-11-03T18:25:55.475Z,60.80
2022-11-03T18:28:24.037Z,60.80
2022-11-03T18:30:56.678Z,60.80
2022-11-03T18:33:28.626Z,61.00
2022-11-03T18:35:58.972Z,61.00
2022-11-03T18:38:27.960Z,61.00
2022-11-03T18:40:56.836Z,60.90
2022-11-03T18:43:26.470Z,61.00
2022-11-03T18:45:56.303Z,61.20
2022-11-03T18:48:24.746Z,61.30
2022-11-03T18:50:55.978Z,61.30
2022-11-03T18:53:26.946Z,61.50
2022-11-03T18:55:59.705Z,61.50
2022-11-03T18:58:28.798Z,61.60
2022-11-03T19:00:59.153Z,61.60
2022-11-03T19:03:28.648Z,61.60
2022-11-03T19:05:58.135Z,61.60
2022-11-03T19:08:30.719Z,61.60
2022-11-03T19:11:03.765Z,61.70
2022-11-03T19:13:37.633Z,61.60
2022-11-03T19:16:15.961Z,61.80
2022-11-03T19:18:45.904Z,62.10
2022-11-03T19:21:16.556Z,61.80
2022-11-03T19:23:47.976Z,61.80
2022-11-03T19:26:23.481Z,61.80
2022-11-03T19:28:57.368Z,62.20
2022-11-03T19:31:33.514Z,62.20
2022-11-03T19:34:03.101Z,62.30
2022-11-03T19:36:32.344Z,62.10
2022-11-03T19:39:01.602Z,62.10
2022-11-03T19:41:47.996Z,62.30
2022-11-03T19:44:16.660Z,62.20
2022-11-03T19:46:46.436Z,62.20
2022-11-03T19:49:15.728Z,62.40
2022-11-03T19:51:44.524Z,62.50
2022-11-03T19:54:18.205Z,62.40
2022-11-03T19:56:47.456Z,62.70
2022-11-03T19:59:17.718Z,62.50
2022-11-03T20:01:47.689Z,62.60
2022-11-03T20:04:16.156Z,62.70
2022-11-03T20:06:44.714Z,62.70
2022-11-03T20:09:18.388Z,62.70
2022-11-03T20:11:47.236Z,62.90
2022-11-03T20:14:20.780Z,62.80
2022-11-03T20:16:50.594Z,62.90
2022-11-03T20:19:19.339Z,62.80
2022-11-03T20:21:47.979Z,62.80
2022-11-03T20:24:17.598Z,62.90
2022-11-03T20:26:46.407Z,63.00
2022-11-03T20:29:16.854Z,62.90
2022-11-03T20:31:46.302Z,63.00
2022-11-03T20:34:17.108Z,63.10
2022-11-03T20:36:47.990Z,63.20
2022-11-03T20:39:19.053Z,62.90
2022-11-03T20:41:51.491Z,63.00
2022-11-03T20:44:20.150Z,63.10
2022-11-03T20:46:48.749Z,63.00
2022-11-03T20:49:18.643Z,63.10
2022-11-03T20:51:48.121Z,63.20
2022-11-03T20:54:18.799Z,63.20
2022-11-03T20:56:48.620Z,63.20
2022-11-03T20:59:21.248Z,63.30
2022-11-03T21:01:50.283Z,63.50
2022-11-03T21:04:22.015Z,63.50
2022-11-03T21:06:51.145Z,63.50
2022-11-03T21:09:20.438Z,63.50
2022-11-03T21:11:49.759Z,64.40
2022-11-03T21:14:23.909Z,63.50
2022-11-03T21:17:10.053Z,63.50
2022-11-03T21:19:57.734Z,63.50
2022-11-03T21:22:51.333Z,63.50
2022-11-03T21:25:23.174Z,63.50
2022-11-03T21:27:53.815Z,63.50
2022-11-03T21:30:23.159Z,63.50
2022-11-03T21:32:51.850Z,63.60
2022-11-03T21:35:23.659Z,63.50
2022-11-03T21:37:52.259Z,63.70
2022-11-03T21:40:21.070Z,63.50
2022-11-03T21:43:07.256Z,63.60
2022-11-03T21:45:35.977Z,63.50
2022-11-03T21:48:23.021Z,63.60
2022-11-03T21:50:53.654Z,63.60
2022-11-03T21:53:22.337Z,63.60
2022-11-03T21:55:51.215Z,63.60
2022-11-03T21:58:19.561Z,63.70
2022-11-03T22:00:48.296Z,63.60
2022-11-03T22:03:17.467Z,63.80
2022-11-03T22:05:46.005Z,63.80
2022-11-03T22:08:15.979Z,63.70
2022-11-03T22:10:44.357Z,63.70
2022-11-03T22:13:13.006Z,63.70
2022-11-03T22:15:59.138Z,63.70
2022-11-03T22:18:27.960Z,63.70
2022-11-03T22:21:16.546Z,63.70
2022-11-03T22:24:03.939Z,63.90
2022-11-03T22:26:49.872Z,63.80
2022-11-03T22:29:35.916Z,63.70
2022-11-03T22:32:06.049Z,63.80
2022-11-03T22:34:52.240Z,63.80
2022-11-03T22:37:20.893Z,63.80
2022-11-03T22:40:08.206Z,63.80
2022-11-03T22:42:54.464Z,64.00
2022-11-03T22:45:40.593Z,63.90
2022-11-03T22:48:09.609Z,63.90
2022-11-03T22:50:38.060Z,63.90
2022-11-03T22:53:21.955Z,64.00
2022-11-03T22:55:52.063Z,64.10
2022-11-03T22:58:20.548Z,64.10
2022-11-03T23:00:49.887Z,63.90
2022-11-03T23:03:18.434Z,64.00
2022-11-03T23:05:47.109Z,64.00
2022-11-03T23:08:15.947Z,64.10
2022-11-03T23:10:44.902Z,64.30
2022-11-03T23:13:15.291Z,64.20
2022-11-03T23:15:44.035Z,64.30
2022-11-03T23:18:30.204Z,64.30
2022-11-03T23:21:07.695Z,64.40
2022-11-03T23:23:54.789Z,64.20
2022-11-03T23:26:26.023Z,64.40
2022-11-03T23:28:56.359Z,64.30
2022-11-03T23:31:24.935Z,64.30
2022-11-03T23:33:53.615Z,64.30
2022-11-03T23:36:22.260Z,64.30
2022-11-03T23:38:51.053Z,64.20
2022-11-03T23:41:20.937Z,64.10
2022-11-03T23:43:49.519Z,64.10
2022-11-03T23:46:42.067Z,64.00
2022-11-03T23:49:11.327Z,64.00
2022-11-03T23:51:41.914Z,63.70
2022-11-03T23:54:12.825Z,63.70
2022-11-03T23:57:03.700Z,63.60
2022-11-03T23:59:35.060Z,63.40
